createdAt,value
2023-02-27T03:46:19.278Z,0.90
2023-02-27T03:48:55.148Z,0.90
2023-02-27T03:51:32.934Z,0.70
2023-02-27T07:21:17.247Z,0.90
2023-02-27T07:24:00.571Z,1.10
2023-02-27T08:07:34.044Z,4.60
2023-02-27T08:10:05.527Z,4.40
2023-02-27T08:12:49.903Z,3.80
2023-02-27T08:15:26.802Z,3.20
2023-02-27T08:18:06.953Z,2.80
2023-02-27T08:20:43.625Z,2.70
2023-02-27T08:23:21.759Z,2.80
2023-02-27T08:25:49.141Z,2.80
2023-02-27T08:28:15.776Z,2.80
2023-02-27T08:30:58.225Z,2.80
2023-02-27T08:33:26.052Z,2.90
2023-02-27T08:36:11.578Z,2.90
2023-02-27T08:38:38.588Z,2.90
2023-02-27T08:41:27.923Z,3.00
2023-02-27T08:43:52.983Z,3.00
2023-02-27T08:46:28.892Z,3.10
2023-02-27T08:49:40.295Z,3.60
2023-02-27T08:52:07.328Z,5.00
2023-02-27T08:54:34.283Z,5.40
2023-02-27T08:57:11.893Z,6.20
2023-02-27T08:59:58.937Z,6.80
2023-02-27T09:03:10.193Z,7.00
2023-02-27T09:05:58.220Z,6.30
2023-02-27T09:08:39.383Z,5.30
2023-02-27T09:11:38.860Z,4.80
2023-02-27T09:14:56.962Z,4.60
2023-02-27T09:18:05.717Z,4.80
2023-02-27T09:20:38.505Z,4.60
2023-02-27T09:23:17.746Z,5.30
2023-02-27T09:26:04.901Z,5.20
2023-02-27T09:28:47.292Z,5.20
2023-02-27T09:31:37.565Z,5.30
2023-02-27T09:34:11.901Z,5.50
2023-02-27T09:40:01.989Z,6.30
2023-02-27T09:46:10.309Z,6.00
2023-02-27T09:49:07.494Z,5.70
2023-02-27T09:51:43.871Z,5.80
2023-02-27T09:54:12.020Z,6.00
2023-02-27T09:57:12.879Z,5.80
2023-02-27T10:03:34.274Z,6.00
2023-02-27T10:09:50.446Z,5.80
2023-02-27T10:12:43.632Z,6.00
2023-02-27T10:15:41.449Z,5.50
2023-02-27T10:18:31.775Z,5.50
2023-02-27T10:21:48.763Z,5.50
2023-02-27T10:24:50.972Z,5.30
2023-02-27T10:27:24.037Z,5.20
2023-02-27T10:29:53.341Z,5.10
2023-02-27T10:32:39.478Z,5.00
2023-02-27T10:35:34.076Z,5.30
2023-02-27T10:38:34.380Z,5.40
2023-02-27T10:41:13.664Z,5.30
2023-02-27T10:43:41.382Z,5.30
2023-02-27T10:46:30.313Z,5.40
2023-02-27T10:49:19.307Z,5.40
2023-02-27T10:52:04.108Z,5.30
2023-02-27T10:54:31.154Z,5.40
2023-02-27T10:57:17.991Z,5.40
2023-02-27T11:00:03.069Z,5.40
2023-02-27T11:02:43.671Z,5.40
2023-02-27T11:05:30.913Z,5.60
2023-02-27T11:08:35.207Z,5.60
2023-02-27T11:11:05.250Z,5.80
2023-02-27T11:13:45.467Z,5.50
2023-02-27T11:16:19.429Z,5.30
2023-02-27T11:18:55.525Z,5.40
2023-02-27T11:21:34.708Z,5.60
2023-02-27T11:24:22.926Z,5.90
2023-02-27T11:27:03.470Z,6.10
2023-02-27T11:29:36.525Z,6.10
2023-02-27T11:32:13.477Z,5.80
2023-02-27T11:35:02.670Z,5.70
2023-02-27T11:37:49.594Z,5.60
2023-02-27T11:40:39.956Z,5.60
2023-02-27T11:46:47.417Z,5.30
2023-02-27T11:49:56.193Z,5.50
2023-02-27T11:52:58.163Z,5.70
2023-02-27T11:56:17.075Z,5.60
2023-02-27T11:59:25.387Z,5.80
2023-02-27T12:02:34.201Z,5.70
2023-02-27T12:05:14.349Z,5.70
2023-02-27T12:07:54.318Z,5.70
2023-02-27T12:11:14.238Z,5.80
2023-02-27T12:13:46.925Z,5.80
2023-02-27T12:19:33.458Z,5.50
2023-02-27T12:22:24.438Z,5.50
2023-02-27T12:25:15.698Z,5.60
2023-02-27T12:28:25.298Z,5.60
2023-02-27T12:34:36.433Z,5.70
2023-02-27T12:37:31.133Z,5.70
2023-02-27T12:40:03.373Z,5.70
2023-02-27T12:42:50.173Z,5.70
2023-02-27T12:45:44.042Z,5.60
2023-02-27T12:48:38.975Z,5.80
2023-02-27T13:00:55.196Z,5.80
2023-02-27T13:03:44.786Z,6.10
2023-02-27T13:06:24.990Z,6.40
2023-02-27T13:08:54.483Z,6.20
2023-02-27T13:11:44.315Z,6.10
2023-02-27T13:14:48.404Z,6.20
2023-02-27T13:17:37.006Z,6.20
2023-02-27T13:20:22.044Z,6.20
2023-02-27T13:23:09.131Z,6.30
2023-02-27T13:25:41.734Z,6.40
2023-02-27T13:28:23.673Z,6.30
2023-02-27T13:33:41.835Z,6.60
2023-02-27T13:36:35.258Z,6.40
2023-02-27T13:39:01.981Z,6.10
2023-02-27T13:41:28.805Z,5.90
2023-02-27T13:44:24.662Z,5.80
2023-02-27T13:46:51.335Z,5.70
2023-02-27T13:49:44.368Z,5.90
2023-02-27T13:52:11.135Z,6.00
2023-02-27T13:54:55.212Z,5.90
2023-02-27T13:57:44.012Z,5.80
2023-02-27T14:00:30.868Z,5.80
2023-02-27T14:03:20.243Z,5.90
2023-02-27T14:05:48.829Z,5.90
2023-02-27T14:08:22.581Z,6.10
2023-02-27T14:11:10.834Z,6.30
2023-02-27T14:13:59.822Z,6.40
2023-02-27T14:16:38.858Z,6.60
2023-02-27T14:19:30.072Z,6.50
2023-02-27T14:22:23.333Z,6.30
2023-02-27T14:25:32.567Z,6.10
2023-02-27T14:28:41.349Z,6.00
2023-02-27T14:31:33.996Z,6.00
2023-02-27T14:34:06.710Z,6.00
2023-02-27T14:42:38.543Z,5.90
2023-02-27T14:45:23.937Z,5.90
2023-02-27T14:47:52.599Z,5.80
2023-02-27T14:50:35.792Z,5.80
2023-02-27T14:53:24.853Z,5.70
2023-02-27T14:55:57.197Z,5.90
2023-02-27T14:58:32.419Z,6.00
2023-02-27T15:01:08.774Z,6.10
2023-02-27T15:03:50.230Z,6.10
2023-02-27T15:06:46.259Z,6.00
2023-02-27T15:09:25.897Z,6.00
2023-02-27T15:12:04.120Z,6.00
2023-02-27T15:14:40.576Z,6.10
2023-02-27T15:17:44.952Z,6.10
2023-02-27T15:20:26.887Z,6.10
2023-02-27T15:25:37.231Z,6.10
2023-02-27T15:28:18.930Z,6.00
2023-02-27T15:30:52.979Z,5.70
2023-02-27T15:33:28.308Z,5.70
2023-02-27T15:39:34.784Z,5.70
2023-02-27T15:42:11.316Z,5.90
2023-02-27T15:44:58.498Z,6.00
2023-02-27T15:47:31.337Z,6.00
2023-02-27T15:50:12.190Z,6.00
2023-02-27T15:53:01.608Z,6.00
2023-02-27T15:55:53.763Z,6.10
2023-02-27T15:58:34.282Z,6.10
2023-02-27T16:01:04.702Z,6.10
2023-02-27T16:03:44.929Z,5.90
2023-02-27T16:06:16.878Z,5.90
2023-02-27T16:08:52.408Z,5.90
2023-02-27T16:11:36.280Z,5.80
2023-02-27T16:14:04.138Z,5.70
2023-02-27T16:16:37.994Z,5.70
2023-02-27T16:19:40.358Z,5.70
2023-02-27T16:22:30.525Z,5.70
2023-02-27T16:25:19.072Z,5.60
2023-02-27T16:27:54.724Z,5.60
2023-02-27T16:30:22.480Z,5.60
2023-02-27T16:33:22.353Z,5.50
2023-02-27T16:36:27.535Z,5.50
2023-02-27T16:38:56.778Z,5.50
2023-02-27T16:41:32.620Z,5.50
2023-02-27T16:43:59.395Z,5.40
2023-02-27T16:46:31.193Z,5.40
2023-02-27T16:49:21.481Z,5.30
2023-02-27T16:52:03.592Z,5.30
2023-02-27T16:54:30.303Z,5.20
2023-02-27T16:57:00.129Z,5.20
2023-02-27T16:59:40.206Z,5.10
2023-02-27T17:02:16.116Z,5.10
2023-02-27T17:04:46.082Z,5.10
2023-02-27T17:09:56.149Z,5.10
2023-02-27T17:12:22.955Z,5.00
2023-02-27T17:14:49.567Z,5.00
2023-02-27T17:17:16.343Z,4.90
2023-02-27T17:19:46.360Z,4.90
2023-02-27T17:22:13.066Z,4.80
2023-02-27T17:24:39.820Z,4.80
2023-02-27T17:27:06.924Z,4.70
2023-02-27T17:29:41.497Z,4.70
2023-02-27T17:32:11.690Z,4.70
2023-02-27T17:34:38.616Z,4.60
2023-02-27T17:37:11.526Z,4.60
2023-02-27T17:42:19.003Z,4.50
2023-02-27T17:44:46.243Z,4.50
2023-02-27T17:47:16.131Z,4.40
2023-02-27T17:49:42.813Z,4.40
2023-02-27T17:52:09.826Z,4.40
2023-02-27T17:54:49.152Z,4.30
2023-02-27T17:57:16.493Z,4.30
2023-02-27T17:59:43.280Z,4.30
2023-02-27T18:02:14.504Z,4.20
2023-02-27T18:04:41.742Z,4.20
2023-02-27T18:07:08.637Z,4.20
2023-02-27T18:09:35.435Z,4.20
2023-02-27T18:12:02.250Z,4.20
2023-02-27T18:14:29.292Z,4.10
2023-02-27T18:16:56.401Z,4.10
2023-02-27T18:19:23.348Z,4.10
2023-02-27T18:21:50.140Z,4.10
2023-02-27T18:24:16.909Z,4.10
2023-02-27T18:26:43.676Z,4.10
2023-02-27T18:29:12.034Z,4.00
2023-02-27T18:31:41.574Z,4.00
2023-02-27T18:34:08.948Z,3.90
2023-02-27T18:36:36.543Z,3.90
2023-02-27T18:39:05.615Z,3.90
2023-02-27T18:41:32.998Z,3.90
2023-02-27T18:43:59.814Z,3.90
2023-02-27T18:46:27.256Z,3.80
2023-02-27T18:48:54.289Z,3.80
2023-02-27T18:51:21.411Z,3.80
2023-02-27T18:53:49.993Z,3.80
2023-02-27T18:56:19.863Z,3.70
2023-02-27T18:58:47.089Z,3.70
2023-02-27T19:01:28.447Z,3.60
2023-02-27T19:03:55.737Z,3.60
2023-02-27T19:06:22.499Z,3.50
2023-02-27T19:08:49.156Z,3.40
2023-02-27T19:11:22.457Z,3.40
2023-02-27T19:13:49.107Z,3.40
2023-02-27T19:16:15.974Z,3.40
2023-02-27T19:18:42.756Z,3.30
2023-02-27T19:21:09.516Z,3.30
2023-02-27T19:23:36.693Z,3.30
2023-02-27T19:26:03.619Z,3.30
2023-02-27T20:55:50.830Z,2.60
2023-02-27T21:04:49.416Z,2.60
2023-02-27T21:07:20.791Z,2.60
2023-02-27T21:09:47.723Z,2.60
2023-02-27T21:12:14.707Z,2.50
2023-02-27T21:14:44.150Z,2.60
2023-02-27T21:17:11.489Z,2.50
2023-02-27T21:19:43.239Z,2.50
2023-02-27T21:22:11.452Z,2.50
2023-02-27T21:24:38.619Z,2.50
2023-02-27T21:27:39.080Z,2.50
2023-02-27T21:49:46.228Z,2.30
2023-02-27T21:56:58.913Z,2.30
2023-02-27T21:59:25.818Z,2.20
2023-02-27T22:07:57.812Z,2.20
2023-02-27T22:13:08.667Z,2.10
2023-02-27T22:15:36.289Z,2.10
2023-02-27T22:21:46.068Z,2.10
2023-02-27T22:36:15.872Z,1.90
2023-02-27T22:38:53.903Z,1.80
2023-02-27T22:41:33.045Z,1.70
2023-02-27T22:44:01.755Z,1.70
2023-02-27T22:46:40.258Z,1.70
2023-02-27T22:52:36.858Z,1.70
2023-02-27T23:08:53.925Z,1.70
2023-02-27T23:12:16.993Z,1.70
2023-02-27T23:18:33.206Z,1.70
2023-02-27T23:21:46.230Z,1.80
2023-02-27T23:30:34.307Z,1.80
2023-02-27T23:33:11.470Z,1.80
2023-02-27T23:36:22.400Z,1.80
2023-02-27T23:48:47.652Z,1.80
2023-02-27T23:55:04.393Z,1.80
2023-02-27T23:57:37.274Z,1.80
